Time,TemperatureF,DewpointF,PressureIn,WindDirection,WindDirectionDegrees,WindSpeedMPH,WindSpeedGustMPH,Humidity,HourlyPrecipIn,Conditions,Clouds,dailyrainin,SoftwareType,DateUTC
2019-01-20 00:00:38,32.1,26.0,29.92,NE,44,6.0,15.0,79,0.17,,,0.00,weatherlink.com 1.10,2019-01-20 05:00:38,
2019-01-20 00:15:41,32.3,26.0,29.92,ESE,109,4.0,16.0,79,0.19,,,0.05,weatherlink.com 1.10,2019-01-20 05:15:41,
2019-01-20 00:30:44,32.6,27.0,29.92,NE,39,5.0,12.0,80,0.22,,,0.12,weatherlink.com 1.10,2019-01-20 05:30:44,
2019-01-20 00:45:46,32.6,27.0,29.87,East,82,9.0,19.0,79,0.23,,,0.18,weatherlink.com 1.10,2019-01-20 05:45:46,
2019-01-20 01:00:50,32.8,27.0,29.83,NE,37,13.0,21.0,80,0.24,,,0.24,weatherlink.com 1.10,2019-01-20 06:00:50,
2019-01-20 01:15:53,32.9,27.0,29.82,SSW,200,4.0,18.0,80,0.25,,,0.30,weatherlink.com 1.10,2019-01-20 06:15:53,
2019-01-20 01:30:55,33.3,28.0,29.84,East,93,6.0,16.0,80,0.22,,,0.34,weatherlink.com 1.10,2019-01-20 06:30:55,
2019-01-20 01:45:56,33.2,27.0,29.83,ENE,71,10.0,19.0,79,0.22,,,0.40,weatherlink.com 1.10,2019-01-20 06:45:56,
2019-01-20 02:00:58,33.3,28.0,29.83,ENE,76,5.0,18.0,80,0.20,,,0.45,weatherlink.com 1.10,2019-01-20 07:00:58,
2019-01-20 02:15:59,32.8,27.0,29.82,NNE,32,4.0,14.0,79,0.20,,,0.50,weatherlink.com 1.10,2019-01-20 07:15:59,
2019-01-20 02:30:00,33.1,27.0,29.83,WSW,240,2.0,11.0,79,0.19,,,0.53,weatherlink.com 1.10,2019-01-20 07:30:00,
2019-01-20 02:45:03,32.7,27.0,29.79,NE,45,4.0,18.0,80,0.17,,,0.57,weatherlink.com 1.10,2019-01-20 07:45:03,
2019-01-20 03:00:06,32.6,27.0,29.74,NNW,348,15.0,21.0,79,0.14,,,0.59,weatherlink.com 1.10,2019-01-20 08:00:06,
2019-01-20 03:15:09,32.7,27.0,29.74,NE,48,14.0,25.0,80,0.11,,,0.61,weatherlink.com 1.10,2019-01-20 08:15:09,
2019-01-20 03:30:11,32.7,27.0,29.71,NNW,346,13.0,29.0,80,0.13,,,0.67,weatherlink.com 1.10,2019-01-20 08:30:11,
2019-01-20 03:45:13,32.9,27.0,29.71,SE,125,15.0,21.0,80,0.12,,,0.70,weatherlink.com 1.10,2019-01-20 08:45:13,
2019-01-20 04:00:15,33.2,28.0,29.70,NE,51,6.0,20.0,80,0.16,,,0.75,weatherlink.com 1.10,2019-01-20 09:00:15,
2019-01-20 04:15:18,33.2,28.0,29.67,East,84,5.0,19.0,80,0.17,,,0.78,weatherlink.com 1.10,2019-01-20 09:15:18,
2019-01-20 04:30:21,33.4,28.0,29.66,East,89,16.0,21.0,80,0.13,,,0.80,weatherlink.com 1.10,2019-01-20 09:30:21,
2019-01-20 04:45:23,33.6,28.0,29.64,ENE,67,5.0,21.0,80,0.12,,,0.83,weatherlink.com 1.10,2019-01-20 09:45:23,
2019-01-20 05:00:26,33.6,28.0,29.63,North,5,11.0,22.0,80,0.10,,,0.85,weatherlink.com 1.10,2019-01-20 10:00:26,
2019-01-20 05:15:29,33.4,28.0,29.61,ESE,117,6.0,23.0,80,0.10,,,0.88,weatherlink.com 1.10,2019-01-20 10:15:29,
2019-01-20 05:30:32,33.4,28.0,29.58,North,5,3.0,26.0,80,0.09,,,0.89,weatherlink.com 1.10,2019-01-20 10:30:32,
2019-01-20 05:45:33,33.5,28.0,29.59,East,96,7.0,21.0,80,0.08,,,0.91,weatherlink.com 1.10,2019-01-20 10:45:33,
2019-01-20 06:00:35,33.5,28.0,29.57,ENE,67,5.0,22.0,80,0.06,,,0.92,weatherlink.com 1.10,2019-01-20 11:00:35,
2019-01-20 06:15:38,34.0,28.0,29.56,ENE,60,10.0,16.0,80,0.05,,,0.93,weatherlink.com 1.10,2019-01-20 11:15:38,
2019-01-20 06:30:42,34.8,29.0,29.55,SE,135,8.0,17.0,80,0.05,,,0.94,weatherlink.com 1.10,2019-01-20 11:30:42,
2019-01-20 06:45:45,35.2,30.0,29.53,NNW,348,5.0,17.0,80,0.05,,,0.96,weatherlink.com 1.10,2019-01-20 11:45:45,
2019-01-20 07:00:47,35.5,30.0,29.52,NE,51,13.0,17.0,80,0.05,,,0.97,weatherlink.com 1.10,2019-01-20 12:00:47,
2019-01-20 07:15:52,36.6,31.0,29.48,NE,41,13.0,22.0,80,0.06,,,0.99,weatherlink.com 1.10,2019-01-20 12:15:52,
2019-01-20 07:30:55,37.4,32.0,29.46,ENE,75,8.0,18.0,80,0.06,,,1.00,weatherlink.com 1.10,2019-01-20 12:30:55,
2019-01-20 07:45:56,36.6,31.0,29.46,East,81,10.0,18.0,79,0.05,,,1.01,weatherlink.com 1.10,2019-01-20 12:45:56,
2019-01-20 08:00:58,36.3,30.0,29.46,ENE,78,10.0,17.0,79,0.04,,,1.01,weatherlink.com 1.10,2019-01-20 13:00:58,
2019-01-20 08:15:59,37.1,31.0,29.48,East,96,6.0,16.0,80,0.02,,,1.02,weatherlink.com 1.10,2019-01-20 13:15:59,
2019-01-20 08:30:02,40.2,34.0,29.46,ESE,104,3.0,13.0,79,0.04,,,1.04,weatherlink.com 1.10,2019-01-20 13:30:02,
2019-01-20 08:45:04,40.4,34.0,29.46,SE,135,4.0,19.0,79,0.07,,,1.08,weatherlink.com 1.10,2019-01-20 13:45:04,
2019-01-20 09:00:07,43.4,37.0,29.42,ESE,115,11.0,21.0,79,0.08,,,1.09,weatherlink.com 1.10,2019-01-20 14:00:07,
2019-01-20 09:15:08,44.4,38.0,29.40,NE,36,13.0,25.0,79,0.08,,,1.10,weatherlink.com 1.10,2019-01-20 14:15:08,
2019-01-20 09:30:10,44.2,38.0,29.40,South,182,5.0,29.0,79,0.06,,,1.11,weatherlink.com 1.10,2019-01-20 14:30:10,
2019-01-20 09:45:12,44.2,38.0,29.37,SE,130,8.0,18.0,79,0.03,,,1.11,weatherlink.com 1.10,2019-01-20 14:45:12,
2019-01-20 10:00:14,45.0,39.0,29.36,SE,127,17.0,20.0,78,0.02,,,1.11,weatherlink.com 1.10,2019-01-20 15:00:14,
2019-01-20 10:15:17,46.3,40.0,29.35,ESE,117,15.0,20.0,78,0.01,,,1.11,weatherlink.com 1.10,2019-01-20 15:15:17,
2019-01-20 10:30:18,46.7,40.0,29.36,SSE,163,18.0,25.0,78,0.00,,,1.11,weatherlink.com 1.10,2019-01-20 15:30:18,
2019-01-20 11:00:21,42.2,36.0,29.36,NE,41,7.0,27.0,78,0.01,,,1.12,weatherlink.com 1.10,2019-01-20 16:00:21,
2019-01-20 11:15:22,37.0,31.0,29.39,NW,313,18.0,22.0,78,0.01,,,1.12,weatherlink.com 1.10,2019-01-20 16:15:22,
2019-01-20 11:30:23,37.0,31.0,29.36,NNE,17,8.0,18.0,79,0.01,,,1.12,weatherlink.com 1.10,2019-01-20 16:30:23,
2019-01-20 11:45:23,35.5,30.0,29.36,NNW,330,8.0,16.0,79,0.01,,,1.12,weatherlink.com 1.10,2019-01-20 16:45:23,
2019-01-20 12:00:23,34.2,28.0,29.36,NNW,346,13.0,18.0,79,0.00,,,1.12,weatherlink.com 1.10,2019-01-20 17:00:23,
2019-01-20 12:15:25,32.6,27.0,29.36,WNW,300,19.0,28.0,79,0.00,,,1.12,weatherlink.com 1.10,2019-01-20 17:15:25,
2019-01-20 12:30:26,32.8,27.0,29.35,NW,325,14.0,20.0,80,0.00,,,1.12,weatherlink.com 1.10,2019-01-20 17:30:26,
2019-01-20 12:45:27,33.4,28.0,29.36,NNE,24,13.0,24.0,80,0.00,,,1.12,weatherlink.com 1.10,2019-01-20 17:45:27,
2019-01-20 13:00:28,33.8,28.0,29.37,NW,309,11.0,21.0,79,0.00,,,1.12,weatherlink.com 1.10,2019-01-20 18:00:28,
2019-01-20 13:15:29,34.2,28.0,29.38,NNW,342,9.0,20.0,78,0.00,,,1.12,weatherlink.com 1.10,2019-01-20 18:15:29,
2019-01-20 13:30:30,34.9,28.0,29.39,NNW,342,14.0,24.0,77,0.01,,,1.13,weatherlink.com 1.10,2019-01-20 18:30:30,
2019-01-20 13:45:31,34.5,27.0,29.40,WNW,292,15.0,25.0,75,0.01,,,1.13,weatherlink.com 1.10,2019-01-20 18:45:31,
2019-01-20 14:00:33,32.5,24.0,29.41,WNW,288,20.0,30.0,72,0.01,,,1.13,weatherlink.com 1.10,2019-01-20 19:00:33,
2019-01-20 14:15:38,31.0,22.0,29.42,WNW,292,21.0,31.0,70,0.01,,,1.13,weatherlink.com 1.10,2019-01-20 19:15:38,
2019-01-20 14:30:42,29.3,21.0,29.43,WSW,250,15.0,30.0,71,0.00,,,1.13,weatherlink.com 1.10,2019-01-20 19:30:42,
2019-01-20 14:45:45,28.0,19.0,29.46,WNW,286,16.0,29.0,70,0.00,,,1.13,weatherlink.com 1.10,2019-01-20 19:45:45,
2019-01-20 15:00:47,27.5,19.0,29.47,NW,307,10.0,27.0,70,0.00,,,1.13,weatherlink.com 1.10,2019-01-20 20:00:47,
2019-01-20 15:15:52,26.6,17.0,29.48,SW,231,11.0,27.0,68,0.00,,,1.13,weatherlink.com 1.10,2019-01-20 20:15:52,
2019-01-20 15:30:55,26.1,16.0,29.49,NW,326,12.0,30.0,67,0.00,,,1.13,weatherlink.com 1.10,2019-01-20 20:30:55,
2019-01-20 15:45:56,25.8,16.0,29.50,WNW,282,12.0,29.0,67,0.00,,,1.13,weatherlink.com 1.10,2019-01-20 20:45:56,
2019-01-20 16:00:59,24.8,15.0,29.53,SW,217,13.0,34.0,66,0.00,,,1.13,weatherlink.com 1.10,2019-01-20 21:00:59,
2019-01-20 16:15:02,23.9,13.0,29.54,WNW,302,18.0,33.0,64,0.00,,,1.13,weatherlink.com 1.10,2019-01-20 21:15:02,
2019-01-20 16:30:05,22.8,11.0,29.55,NW,317,27.0,39.0,62,0.00,,,1.13,weatherlink.com 1.10,2019-01-20 21:30:05,
2019-01-20 16:45:08,22.2,12.0,29.57,NW,304,19.0,32.0,64,0.00,,,1.13,weatherlink.com 1.10,2019-01-20 21:45:08,